createdAt,value
2023-03-29T00:00:24.614Z,2.65
2023-03-29T00:02:51.555Z,2.15
2023-03-29T00:05:19.694Z,2.60
2023-03-29T00:07:46.336Z,2.65
2023-03-29T00:10:13.143Z,3.20
2023-03-29T00:12:40.146Z,2.72
2023-03-29T00:15:07.410Z,2.22
2023-03-29T00:17:34.457Z,2.33
2023-03-29T00:20:01.161Z,2.33
2023-03-29T00:22:27.839Z,2.25
2023-03-29T00:24:54.669Z,2.42
2023-03-29T00:27:21.782Z,2.75
2023-03-29T00:29:48.430Z,2.25
2023-03-29T00:32:15.109Z,2.30
2023-03-29T00:34:41.793Z,2.30
2023-03-29T00:37:09.153Z,2.30
2023-03-29T00:39:36.739Z,2.55
2023-03-29T00:42:03.584Z,2.63
2023-03-29T00:44:55.436Z,2.50
2023-03-29T00:47:25.074Z,2.35
2023-03-29T00:49:52.052Z,2.80
2023-03-29T00:52:19.068Z,2.42
2023-03-29T00:54:45.729Z,3.15
2023-03-29T00:57:12.591Z,2.92
2023-03-29T00:59:39.288Z,2.70
2023-03-29T01:02:35.839Z,2.20
2023-03-29T01:05:05.621Z,3.10
2023-03-29T01:07:39.707Z,2.35
2023-03-29T01:10:23.760Z,2.30
2023-03-29T01:12:53.559Z,2.60
2023-03-29T01:17:49.988Z,2.60
2023-03-29T01:20:38.798Z,2.60
2023-03-29T01:23:26.344Z,2.90
2023-03-29T01:25:57.842Z,2.80
2023-03-29T01:28:28.243Z,2.80
2023-03-29T01:31:05.971Z,2.92
2023-03-29T01:33:40.514Z,2.30
2023-03-29T01:36:14.822Z,2.80
2023-03-29T01:38:44.398Z,2.78
2023-03-29T01:41:11.209Z,3.00
2023-03-29T01:43:56.152Z,3.13
2023-03-29T01:46:39.611Z,3.05
2023-03-29T01:49:08.276Z,3.47
2023-03-29T01:51:49.300Z,3.10
2023-03-29T01:54:22.171Z,2.70
2023-03-29T01:56:49.378Z,3.47
2023-03-29T01:59:18.733Z,3.10
2023-03-29T02:01:47.995Z,2.55
2023-03-29T02:04:16.561Z,2.83
2023-03-29T02:06:43.273Z,2.90
2023-03-29T02:09:09.902Z,3.35
2023-03-29T02:11:36.671Z,3.88
2023-03-29T02:14:03.388Z,3.00
2023-03-29T02:16:35.381Z,2.95
2023-03-29T02:19:02.041Z,2.85
2023-03-29T02:21:39.709Z,2.95
2023-03-29T02:24:07.514Z,3.15
2023-03-29T02:26:34.190Z,3.05
2023-03-29T02:29:00.851Z,3.50
2023-03-29T02:31:56.026Z,2.67
2023-03-29T02:34:24.386Z,3.42
2023-03-29T02:36:53.452Z,2.63
2023-03-29T02:39:20.330Z,2.88
2023-03-29T02:41:48.572Z,2.80
2023-03-29T02:44:26.105Z,2.85
2023-03-29T02:46:55.588Z,3.63
2023-03-29T02:49:22.555Z,3.40
2023-03-29T02:51:50.368Z,2.92
2023-03-29T02:54:18.779Z,3.10
2023-03-29T02:56:47.335Z,2.60
2023-03-29T02:59:14.390Z,3.17
2023-03-29T03:01:41.461Z,2.70
2023-03-29T03:04:09.225Z,3.25
2023-03-29T03:06:36.899Z,2.72
2023-03-29T03:09:04.577Z,2.53
2023-03-29T03:11:31.859Z,3.22
2023-03-29T03:13:58.518Z,3.75
2023-03-29T03:16:25.439Z,3.30
2023-03-29T03:18:52.189Z,2.92
2023-03-29T03:21:19.008Z,2.85
2023-03-29T03:23:46.621Z,3.25
2023-03-29T03:26:13.633Z,2.83
2023-03-29T03:28:40.350Z,3.35
2023-03-29T03:31:07.137Z,3.47
2023-03-29T03:33:34.289Z,3.40
2023-03-29T03:36:01.089Z,3.13
2023-03-29T03:38:28.208Z,3.40
2023-03-29T03:40:58.520Z,3.20
2023-03-29T03:43:25.434Z,3.85
2023-03-29T03:45:52.255Z,4.18
2023-03-29T03:48:18.929Z,3.70
2023-03-29T03:51:04.143Z,3.53
2023-03-29T03:53:31.211Z,2.92
2023-03-29T03:55:57.914Z,3.58
2023-03-29T03:58:24.612Z,3.53
2023-03-29T04:00:51.399Z,3.17
2023-03-29T04:03:18.256Z,3.13
2023-03-29T04:05:45.774Z,3.50
2023-03-29T04:08:12.906Z,3.85
2023-03-29T04:10:39.645Z,3.38
2023-03-29T04:13:06.258Z,3.90
2023-03-29T04:15:33.908Z,3.30
2023-03-29T04:18:00.750Z,3.15
2023-03-29T04:20:27.561Z,3.10
2023-03-29T04:22:54.273Z,4.13
2023-03-29T04:25:20.991Z,3.63
2023-03-29T04:27:48.298Z,3.80
2023-03-29T04:30:15.020Z,3.90
2023-03-29T04:32:41.677Z,3.95
2023-03-29T04:35:09.138Z,3.53
2023-03-29T04:37:35.854Z,4.22
2023-03-29T04:40:02.553Z,4.05
2023-03-29T04:42:29.284Z,3.05
2023-03-29T04:44:55.958Z,3.35
2023-03-29T04:47:22.787Z,3.75
2023-03-29T04:49:49.462Z,4.28
2023-03-29T04:52:16.130Z,3.80
2023-03-29T04:54:42.829Z,4.05
2023-03-29T04:57:09.633Z,3.83
2023-03-29T04:59:36.449Z,4.00
2023-03-29T05:02:03.330Z,4.68
2023-03-29T05:04:30.241Z,3.80
2023-03-29T05:07:00.214Z,3.85
2023-03-29T05:09:26.996Z,3.85
2023-03-29T05:11:55.057Z,3.75
2023-03-29T05:14:21.867Z,3.47
2023-03-29T05:16:54.329Z,3.45
2023-03-29T05:19:21.370Z,4.50
2023-03-29T05:21:51.224Z,4.07
2023-03-29T05:26:44.629Z,3.30
2023-03-29T05:29:11.425Z,3.78
2023-03-29T05:31:38.153Z,4.75
2023-03-29T05:34:05.143Z,4.45
2023-03-29T05:36:31.822Z,3.50
2023-03-29T05:38:59.721Z,3.63
2023-03-29T05:41:26.351Z,4.40
2023-03-29T05:43:53.225Z,4.68
2023-03-29T05:46:20.040Z,3.78
2023-03-29T05:48:47.125Z,4.53
2023-03-29T05:51:14.117Z,4.22
2023-03-29T05:53:40.779Z,4.05
2023-03-29T05:56:07.717Z,4.40
2023-03-29T05:58:36.268Z,4.25
2023-03-29T06:01:03.166Z,11.30
2023-03-29T06:03:30.217Z,5.93
2023-03-29T06:06:01.634Z,3.78
2023-03-29T06:08:28.906Z,3.70
2023-03-29T06:11:04.767Z,3.03
2023-03-29T06:13:35.277Z,3.83
2023-03-29T06:16:02.094Z,4.18
2023-03-29T06:18:28.924Z,4.03
2023-03-29T06:20:55.616Z,3.53
2023-03-29T06:23:22.568Z,4.40
2023-03-29T06:25:49.614Z,3.80
2023-03-29T06:28:16.249Z,3.85
2023-03-29T06:30:43.131Z,3.58
2023-03-29T06:33:10.027Z,4.22
2023-03-29T06:35:37.009Z,4.18
2023-03-29T06:38:16.521Z,4.60
2023-03-29T06:40:43.787Z,4.40
2023-03-29T06:43:10.735Z,4.82
2023-03-29T06:45:38.097Z,4.07
2023-03-29T06:48:05.256Z,4.38
2023-03-29T06:50:34.061Z,5.13
2023-03-29T06:53:00.678Z,4.60
2023-03-29T06:55:27.314Z,4.60
2023-03-29T06:57:54.477Z,4.43
2023-03-29T07:00:21.665Z,5.00
2023-03-29T07:02:48.634Z,5.45
2023-03-29T07:05:15.590Z,4.38
2023-03-29T07:07:44.257Z,4.75
2023-03-29T07:10:11.019Z,4.63
2023-03-29T07:12:37.664Z,5.22
2023-03-29T07:15:04.694Z,5.22
2023-03-29T07:17:31.514Z,4.15
2023-03-29T07:19:58.237Z,4.65
2023-03-29T07:22:25.021Z,5.20
2023-03-29T07:24:53.769Z,5.47
2023-03-29T07:27:20.424Z,5.60
2023-03-29T07:29:47.267Z,6.22
2023-03-29T07:32:17.906Z,4.68
2023-03-29T07:34:44.888Z,4.55
2023-03-29T07:37:13.360Z,6.00
2023-03-29T07:39:40.874Z,4.72
2023-03-29T07:42:08.287Z,5.50
2023-03-29T07:44:35.005Z,6.43
2023-03-29T07:47:02.129Z,6.43
2023-03-29T07:49:28.825Z,5.93
2023-03-29T07:51:55.921Z,5.00
2023-03-29T07:54:22.895Z,4.85
2023-03-29T07:56:49.693Z,5.70
2023-03-29T07:59:16.475Z,5.05
2023-03-29T08:01:43.130Z,5.97
2023-03-29T08:04:10.016Z,4.97
2023-03-29T08:06:36.885Z,5.50
2023-03-29T08:09:03.606Z,5.43
2023-03-29T08:11:30.296Z,5.57
2023-03-29T08:13:56.993Z,5.97
2023-03-29T08:16:23.663Z,5.55
2023-03-29T08:18:50.379Z,5.95
2023-03-29T08:21:17.162Z,5.43
2023-03-29T08:23:43.838Z,5.95
2023-03-29T08:26:10.555Z,5.03
2023-03-29T08:28:37.336Z,5.57
2023-03-29T08:31:04.318Z,5.50
2023-03-29T08:33:31.330Z,5.40
2023-03-29T08:35:58.230Z,5.88
2023-03-29T08:38:24.920Z,6.15
2023-03-29T08:40:51.667Z,6.15
2023-03-29T08:43:18.307Z,6.70
2023-03-29T08:45:44.892Z,6.22
2023-03-29T08:48:23.397Z,5.97
2023-03-29T08:50:55.833Z,6.88
2023-03-29T08:53:36.935Z,6.70
2023-03-29T08:56:07.513Z,8.60
2023-03-29T08:58:34.358Z,8.52
2023-03-29T09:01:01.668Z,8.52
2023-03-29T09:03:34.692Z,8.18
2023-03-29T09:06:06.204Z,8.55
2023-03-29T09:08:35.556Z,8.73
2023-03-29T09:11:23.286Z,9.05
2023-03-29T09:13:59.089Z,9.75
2023-03-29T09:16:50.819Z,6.57
2023-03-29T09:19:26.100Z,6.88
2023-03-29T09:22:14.181Z,7.78
2023-03-29T09:25:10.050Z,7.80
2023-03-29T09:27:46.471Z,8.93
2023-03-29T09:30:32.419Z,8.20
2023-03-29T09:33:11.529Z,9.00
2023-03-29T09:35:42.056Z,8.68
2023-03-29T09:38:12.274Z,7.68
2023-03-29T09:40:46.068Z,7.80
2023-03-29T09:43:14.073Z,7.38
2023-03-29T09:45:40.861Z,8.30
2023-03-29T09:48:17.812Z,7.57
2023-03-29T09:50:48.283Z,7.20
2023-03-29T09:53:15.340Z,8.85
2023-03-29T09:55:41.999Z,8.05
2023-03-29T09:58:20.103Z,7.95
2023-03-29T10:00:47.025Z,8.88
2023-03-29T10:03:27.821Z,7.85
2023-03-29T10:05:56.030Z,8.77
2023-03-29T10:08:30.152Z,9.20
2023-03-29T10:10:57.620Z,8.82
2023-03-29T10:13:29.160Z,7.70
2023-03-29T10:16:04.670Z,8.40
2023-03-29T10:18:41.646Z,7.63
2023-03-29T10:21:15.981Z,7.80
2023-03-29T10:23:42.644Z,6.95
2023-03-29T10:26:22.153Z,7.35
2023-03-29T10:28:50.009Z,6.45
2023-03-29T10:31:18.215Z,6.43
2023-03-29T10:33:45.396Z,7.28
2023-03-29T10:36:12.127Z,6.93
2023-03-29T10:38:40.494Z,6.75
2023-03-29T10:41:09.730Z,7.97
2023-03-29T10:43:38.370Z,8.68
2023-03-29T10:46:12.342Z,8.48
2023-03-29T10:48:39.198Z,9.07
2023-03-29T10:51:06.202Z,10.65
2023-03-29T10:53:33.890Z,12.05
2023-03-29T10:56:06.461Z,11.10
2023-03-29T10:58:48.221Z,10.30
2023-03-29T11:01:20.792Z,10.68
2023-03-29T11:04:09.520Z,10.43
2023-03-29T11:07:00.928Z,9.18
2023-03-29T11:09:51.348Z,9.40
2023-03-29T11:12:26.939Z,10.43
2023-03-29T11:15:14.666Z,10.23
2023-03-29T11:18:12.198Z,8.93
2023-03-29T11:20:45.987Z,9.00
2023-03-29T11:23:38.990Z,7.25
2023-03-29T11:26:22.630Z,8.40
2023-03-29T11:29:23.078Z,7.53
2023-03-29T11:37:26.761Z,7.03
2023-03-29T11:40:15.389Z,7.43
2023-03-29T11:42:44.817Z,7.45
2023-03-29T11:45:25.170Z,6.35
2023-03-29T11:47:51.877Z,6.25
2023-03-29T11:50:30.472Z,5.15
2023-03-29T11:53:00.946Z,5.63
2023-03-29T11:55:28.804Z,6.40
2023-03-29T11:58:09.875Z,5.45
2023-03-29T12:00:42.727Z,5.57
2023-03-29T12:03:19.009Z,5.10
2023-03-29T12:05:50.026Z,4.75
2023-03-29T12:08:20.616Z,6.25
2023-03-29T12:10:53.370Z,6.03
2023-03-29T12:13:26.957Z,6.57
2023-03-29T12:16:24.204Z,5.35
2023-03-29T12:18:52.785Z,5.22
2023-03-29T12:21:23.985Z,4.97
2023-03-29T12:23:50.774Z,5.18
2023-03-29T12:26:26.218Z,5.00
2023-03-29T12:28:52.907Z,5.63
2023-03-29T12:31:28.477Z,5.95
2023-03-29T12:34:16.644Z,5.30
2023-03-29T12:37:06.238Z,6.15
2023-03-29T12:39:32.867Z,6.10
2023-03-29T12:42:25.883Z,4.85
2023-03-29T12:44:58.033Z,5.40
2023-03-29T12:47:32.374Z,4.85
2023-03-29T12:49:59.481Z,4.72
2023-03-29T12:52:30.251Z,5.53
2023-03-29T12:55:01.532Z,4.10
2023-03-29T12:57:44.517Z,4.50
2023-03-29T13:00:22.574Z,4.47
2023-03-29T13:03:21.636Z,3.80
2023-03-29T13:06:03.451Z,3.00
2023-03-29T13:08:34.388Z,3.42
2023-03-29T13:11:01.060Z,3.60
2023-03-29T13:13:37.399Z,3.55
2023-03-29T13:16:14.248Z,3.42
2023-03-29T13:19:06.635Z,3.72
2023-03-29T13:21:47.559Z,2.92
2023-03-29T13:24:28.968Z,3.88
2023-03-29T13:27:01.180Z,3.65
2023-03-29T13:29:30.552Z,3.63
2023-03-29T13:32:12.223Z,4.45
2023-03-29T13:34:48.762Z,3.20
2023-03-29T13:37:34.421Z,3.58
2023-03-29T13:40:01.078Z,3.38
2023-03-29T13:42:33.804Z,3.00
2023-03-29T13:45:23.488Z,3.38
2023-03-29T13:48:05.157Z,3.28
2023-03-29T13:50:40.061Z,2.92
2023-03-29T13:53:14.946Z,3.08
2023-03-29T13:55:47.701Z,2.83
2023-03-29T13:58:53.277Z,2.53
2023-03-29T14:01:46.277Z,2.60
2023-03-29T14:04:16.234Z,1.90
2023-03-29T14:06:42.914Z,2.50
2023-03-29T14:09:10.963Z,2.55
2023-03-29T14:11:37.745Z,2.60
2023-03-29T14:14:04.875Z,2.28
2023-03-29T14:16:33.064Z,2.40
2023-03-29T14:19:00.356Z,2.67
2023-03-29T14:21:27.168Z,2.05
2023-03-29T14:23:55.926Z,1.52
2023-03-29T14:26:23.602Z,2.15
2023-03-29T14:28:54.506Z,2.10
2023-03-29T14:31:40.569Z,2.50
2023-03-29T14:34:17.373Z,2.63
2023-03-29T14:36:47.921Z,2.63
2023-03-29T14:39:19.952Z,2.42
2023-03-29T14:41:51.875Z,2.92
2023-03-29T14:44:18.627Z,2.97
2023-03-29T14:46:45.621Z,2.85
2023-03-29T14:49:16.822Z,2.75
2023-03-29T14:51:45.739Z,2.85
2023-03-29T14:54:18.473Z,2.80
2023-03-29T14:56:45.564Z,2.63
2023-03-29T14:59:25.670Z,2.38
2023-03-29T15:01:52.412Z,2.75
2023-03-29T15:04:19.237Z,2.10
2023-03-29T15:06:46.088Z,3.05
2023-03-29T15:09:30.248Z,2.40
2023-03-29T15:11:57.558Z,2.78
2023-03-29T15:14:24.989Z,2.22
2023-03-29T15:16:51.844Z,2.45
2023-03-29T15:19:20.083Z,2.50
2023-03-29T15:21:50.629Z,2.60
2023-03-29T15:24:33.341Z,3.00
2023-03-29T15:27:04.746Z,3.15
2023-03-29T15:29:41.831Z,2.70
2023-03-29T15:32:09.628Z,2.70
2023-03-29T15:34:36.368Z,2.35
2023-03-29T15:37:03.148Z,2.50
2023-03-29T15:39:29.813Z,2.40
2023-03-29T15:41:56.919Z,2.63
2023-03-29T15:44:27.635Z,2.00
2023-03-29T15:46:55.038Z,2.50
2023-03-29T15:49:21.781Z,2.03
2023-03-29T15:51:48.442Z,2.30
2023-03-29T15:54:15.337Z,2.72
2023-03-29T15:56:53.162Z,2.80
2023-03-29T15:59:19.977Z,2.80
2023-03-29T16:01:46.686Z,2.80
2023-03-29T16:04:35.428Z,2.78
2023-03-29T16:07:02.109Z,2.67
2023-03-29T16:09:28.752Z,2.90
2023-03-29T16:11:55.555Z,2.08
2023-03-29T16:14:29.330Z,3.00
2023-03-29T16:16:59.227Z,2.70
2023-03-29T16:19:26.298Z,3.13
2023-03-29T16:21:53.399Z,3.33
2023-03-29T16:24:23.029Z,3.08
2023-03-29T16:26:49.854Z,3.25
2023-03-29T16:29:16.491Z,2.80
2023-03-29T16:31:43.980Z,2.70
2023-03-29T16:34:11.542Z,3.00
2023-03-29T16:36:38.367Z,3.05
2023-03-29T16:39:05.163Z,2.88
2023-03-29T16:41:31.928Z,2.80
2023-03-29T16:43:59.129Z,2.53
2023-03-29T16:46:25.832Z,2.70
2023-03-29T16:48:52.468Z,3.05
2023-03-29T16:51:19.766Z,2.72
2023-03-29T16:53:46.798Z,3.17
2023-03-29T16:56:14.193Z,3.20
2023-03-29T16:58:41.260Z,3.53
2023-03-29T17:01:14.938Z,3.13
2023-03-29T17:03:41.968Z,3.10
2023-03-29T17:06:09.663Z,3.40
2023-03-29T17:08:36.715Z,3.35
2023-03-29T17:11:03.542Z,3.67
2023-03-29T17:13:30.265Z,3.58
2023-03-29T17:15:57.243Z,3.65
2023-03-29T17:18:25.737Z,3.17
2023-03-29T17:20:53.038Z,3.38
2023-03-29T17:23:19.783Z,3.85
2023-03-29T17:25:46.479Z,6.00
2023-03-29T17:28:13.159Z,6.05
2023-03-29T17:30:39.916Z,4.88
2023-03-29T17:33:06.550Z,3.80
2023-03-29T17:35:33.343Z,3.80
2023-03-29T17:38:00.123Z,4.22
2023-03-29T17:40:26.865Z,4.57
2023-03-29T17:42:53.519Z,4.38
2023-03-29T17:45:20.271Z,4.00
2023-03-29T17:47:47.092Z,4.30
2023-03-29T17:50:13.753Z,4.55
2023-03-29T17:52:40.461Z,4.00
2023-03-29T17:55:08.738Z,4.43
2023-03-29T17:57:35.424Z,4.05
2023-03-29T18:00:02.085Z,4.63
2023-03-29T18:02:28.868Z,4.53
2023-03-29T18:04:55.684Z,4.20
2023-03-29T18:07:22.310Z,4.20
2023-03-29T18:09:50.021Z,3.75
2023-03-29T18:12:16.658Z,4.35
2023-03-29T18:14:43.345Z,4.30
2023-03-29T18:17:10.068Z,5.25
2023-03-29T18:19:36.773Z,4.47
2023-03-29T18:22:03.405Z,4.55
2023-03-29T18:24:30.243Z,5.10
2023-03-29T18:26:56.924Z,4.75
2023-03-29T18:29:23.572Z,5.15
2023-03-29T18:31:50.312Z,5.13
2023-03-29T18:34:17.028Z,4.53
2023-03-29T18:36:43.708Z,4.22
2023-03-29T18:39:10.334Z,5.28
2023-03-29T18:41:36.968Z,5.25
2023-03-29T18:44:04.105Z,5.30
2023-03-29T18:46:30.952Z,6.40
2023-03-29T18:49:01.214Z,6.38
2023-03-29T18:51:28.285Z,7.40
2023-03-29T18:53:55.564Z,6.68
2023-03-29T18:56:22.293Z,8.55
2023-03-29T18:58:49.111Z,6.82
2023-03-29T19:01:15.865Z,8.20
2023-03-29T19:03:42.762Z,6.20
2023-03-29T19:06:09.523Z,7.07
2023-03-29T19:08:36.188Z,5.85
2023-03-29T19:11:06.645Z,4.93
2023-03-29T19:13:33.635Z,4.90
2023-03-29T19:16:00.313Z,5.22
2023-03-29T19:18:27.473Z,6.30
2023-03-29T19:20:54.242Z,6.20
2023-03-29T19:23:23.932Z,5.28
2023-03-29T19:25:54.495Z,6.53
2023-03-29T19:28:21.282Z,4.85
2023-03-29T19:30:48.130Z,4.65
2023-03-29T19:33:14.962Z,5.18
2023-03-29T19:35:41.716Z,3.95
2023-03-29T19:38:08.494Z,3.88
2023-03-29T19:40:35.239Z,3.35
2023-03-29T19:43:01.936Z,3.55
2023-03-29T19:45:28.618Z,3.00
2023-03-29T19:47:56.135Z,2.17
2023-03-29T19:50:23.667Z,2.88
2023-03-29T19:52:50.714Z,2.85
2023-03-29T19:55:17.422Z,3.40
2023-03-29T19:57:44.129Z,2.67
2023-03-29T20:00:11.287Z,3.13
2023-03-29T20:02:38.269Z,3.42
2023-03-29T20:05:05.374Z,3.03
2023-03-29T20:07:32.062Z,3.55
2023-03-29T20:09:58.858Z,3.38
2023-03-29T20:12:25.471Z,3.75
2023-03-29T20:14:52.096Z,3.83
2023-03-29T20:17:18.761Z,3.85
2023-03-29T20:19:45.415Z,4.30
2023-03-29T20:22:12.269Z,4.28
2023-03-29T20:24:39.084Z,4.03
2023-03-29T20:27:05.859Z,4.43
2023-03-29T20:29:32.486Z,3.47
2023-03-29T20:31:59.159Z,4.32
2023-03-29T20:34:26.249Z,4.55
2023-03-29T20:36:52.926Z,4.30
2023-03-29T20:39:19.673Z,4.50
2023-03-29T20:41:46.399Z,4.00
2023-03-29T20:44:14.226Z,3.15
2023-03-29T20:46:40.892Z,3.42
2023-03-29T20:49:07.688Z,2.88
2023-03-29T20:51:34.389Z,3.60
2023-03-29T20:54:02.435Z,3.35
2023-03-29T20:56:33.749Z,3.20
2023-03-29T20:59:00.411Z,3.03
2023-03-29T21:01:27.414Z,3.17
2023-03-29T21:03:54.187Z,2.47
2023-03-29T21:06:22.290Z,2.90
2023-03-29T21:08:49.117Z,2.78
2023-03-29T21:11:15.826Z,2.88
2023-03-29T21:13:45.426Z,2.28
2023-03-29T21:18:39.168Z,2.58
2023-03-29T21:21:07.321Z,2.33
2023-03-29T21:23:34.880Z,2.35
2023-03-29T21:26:02.216Z,2.45
2023-03-29T21:28:29.215Z,2.10
2023-03-29T21:30:56.222Z,2.83
2023-03-29T21:33:26.297Z,2.30
2023-03-29T21:35:53.071Z,2.13
2023-03-29T21:38:20.118Z,2.65
2023-03-29T21:40:47.945Z,1.63
2023-03-29T21:43:14.688Z,1.95
2023-03-29T21:45:41.419Z,2.47
2023-03-29T21:48:08.152Z,2.40
2023-03-29T21:50:34.820Z,2.25
2023-03-29T21:53:01.645Z,2.70
2023-03-29T21:55:28.428Z,1.88
2023-03-29T21:57:55.120Z,2.78
2023-03-29T22:00:22.880Z,2.50
2023-03-29T22:02:49.602Z,2.60
2023-03-29T22:05:16.647Z,2.80
2023-03-29T22:07:43.535Z,1.73
2023-03-29T22:10:11.586Z,2.10
2023-03-29T22:12:38.494Z,1.85
2023-03-29T22:15:06.266Z,1.85
2023-03-29T22:17:33.225Z,2.28
2023-03-29T22:20:00.058Z,2.08
2023-03-29T22:22:26.798Z,2.30
2023-03-29T22:24:54.309Z,2.60
2023-03-29T22:27:21.917Z,2.28
2023-03-29T22:29:48.660Z,2.20
2023-03-29T22:32:15.521Z,1.85
2023-03-29T22:34:42.233Z,1.95
2023-03-29T22:37:08.847Z,2.33
2023-03-29T22:39:35.716Z,1.90
2023-03-29T22:42:02.456Z,1.85
2023-03-29T22:44:29.036Z,1.83
2023-03-29T22:46:55.652Z,1.45
2023-03-29T22:49:22.344Z,2.00
2023-03-29T22:51:48.965Z,1.52
2023-03-29T22:54:15.605Z,1.67
2023-03-29T22:56:42.265Z,1.98
2023-03-29T22:59:08.975Z,1.70
2023-03-29T23:01:35.615Z,1.55
2023-03-29T23:04:02.320Z,1.60
2023-03-29T23:06:29.004Z,1.45
2023-03-29T23:08:55.630Z,1.13
2023-03-29T23:11:22.313Z,1.33
2023-03-29T23:13:49.020Z,1.83
2023-03-29T23:16:15.864Z,1.42
2023-03-29T23:18:42.475Z,1.58
2023-03-29T23:21:09.223Z,1.33
2023-03-29T23:23:35.889Z,1.50
2023-03-29T23:26:02.562Z,1.52
2023-03-29T23:28:29.329Z,1.67
2023-03-29T23:31:06.026Z,1.52
2023-03-29T23:33:33.945Z,0.93
2023-03-29T23:36:01.401Z,1.40
2023-03-29T23:38:28.040Z,1.50
2023-03-29T23:40:55.551Z,1.40
2023-03-29T23:43:22.196Z,1.77
2023-03-29T23:45:54.762Z,1.33
2023-03-29T23:48:21.371Z,1.60
2023-03-29T23:50:47.981Z,1.70
2023-03-29T23:53:14.650Z,1.60
2023-03-29T23:55:41.554Z,1.70
2023-03-29T23:58:08.266Z,1.67
